Laverock, Pennsylvania
Current Conditions -  °F | °C
As of 12:55 AM on Thursday 23 Oct 2014 (Local Time) from KLOM Reporting Station
Overcast Overcast  
Wind Chill: 52°   Ceiling: 1600
Heat Index: 52°   Visibility: 5mi
Dew Point: 50°   Wind: 8mph
Humidity: 94%   Direction: 320°NW
Pressure: 29.77"   Gusts: NA
Location:  40.1012°N, 75.1722°W
Report Text: KLOM 230455Z AUTO 32007KT 5SM SCT010 BKN016 OVC023 11/10 A2977 RMK AO1 P0004
Loading
Personal Weather Stations






























Interactive Weather Map New forecast layout! Learn more

10-Day Weather Forecast

Advertisements
Track Severe Weather on mobile